createdAt,value
2023-02-02T00:01:30.498Z,-2.10
2023-02-02T00:03:57.991Z,-2.20
2023-02-02T00:06:29.135Z,-2.20
2023-02-02T00:08:58.506Z,-2.20
2023-02-02T00:11:26.954Z,-2.20
2023-02-02T00:13:54.800Z,-2.20
2023-02-02T00:16:31.412Z,-2.20
2023-02-02T00:19:02.836Z,-2.20
2023-02-02T00:21:30.711Z,-2.10
2023-02-02T00:23:58.156Z,-2.10
2023-02-02T00:26:26.012Z,-2.00
2023-02-02T00:28:53.823Z,-2.00
2023-02-02T00:31:21.673Z,-2.00
2023-02-02T00:33:50.552Z,-2.00
2023-02-02T00:36:19.613Z,-1.90
2023-02-02T00:38:48.675Z,-1.90
2023-02-02T00:41:16.451Z,-1.90
2023-02-02T00:43:44.370Z,-1.90
2023-02-02T00:46:20.488Z,-1.90
2023-02-02T00:48:47.845Z,-1.90
2023-02-02T00:51:15.285Z,-1.90
2023-02-02T00:53:42.830Z,-1.90
2023-02-02T00:56:10.215Z,-1.90
2023-02-02T00:58:37.460Z,-1.90
2023-02-02T01:01:05.381Z,-1.90
2023-02-02T01:03:32.773Z,-2.00
2023-02-02T01:06:00.129Z,-1.90
2023-02-02T01:08:27.647Z,-1.90
2023-02-02T01:10:55.027Z,-1.80
2023-02-02T01:13:22.328Z,-1.80
2023-02-02T01:15:49.981Z,-1.80
2023-02-02T01:18:17.434Z,-1.80
2023-02-02T01:20:44.782Z,-1.80
2023-02-02T01:23:13.154Z,-1.90
2023-02-02T01:25:40.600Z,-1.90
2023-02-02T01:28:08.012Z,-1.90
2023-02-02T01:30:35.578Z,-1.90
2023-02-02T01:33:02.850Z,-1.90
2023-02-02T01:35:30.519Z,-2.00
2023-02-02T01:37:57.885Z,-2.00
2023-02-02T01:40:25.251Z,-2.00
2023-02-02T01:42:52.729Z,-1.90
2023-02-02T01:45:31.304Z,-1.90
2023-02-02T01:48:00.916Z,-1.80
2023-02-02T01:50:32.896Z,-1.70
2023-02-02T01:53:02.401Z,-1.70
2023-02-02T01:55:33.080Z,-1.70
2023-02-02T01:58:23.075Z,-1.70
2023-02-02T02:00:51.000Z,-1.80
2023-02-02T02:03:23.288Z,-1.80
2023-02-02T02:05:59.083Z,-1.80
2023-02-02T02:08:44.449Z,-1.70
2023-02-02T02:11:11.893Z,-2.00
2023-02-02T02:13:58.858Z,-1.90
2023-02-02T02:16:32.109Z,-1.80
2023-02-02T02:19:29.433Z,-1.70
2023-02-02T02:22:26.336Z,-1.70
2023-02-02T02:25:35.859Z,-1.80
2023-02-02T02:28:03.393Z,-1.70
2023-02-02T02:30:38.766Z,-1.80
2023-02-02T02:33:26.199Z,-1.80
2023-02-02T02:35:56.387Z,-1.80
2023-02-02T02:38:44.041Z,-1.90
2023-02-02T02:41:17.931Z,-2.10
2023-02-02T02:43:51.477Z,-2.10
2023-02-02T02:46:19.613Z,-2.00
2023-02-02T02:48:47.204Z,-1.90
2023-02-02T02:51:42.027Z,-1.80
2023-02-02T02:54:10.391Z,-1.80
2023-02-02T02:56:59.551Z,-1.80
2023-02-02T02:59:41.861Z,-1.80
2023-02-02T03:02:29.124Z,-1.80
2023-02-02T03:05:06.624Z,-1.80
2023-02-02T03:07:42.649Z,-1.80
2023-02-02T03:10:13.510Z,-1.90
2023-02-02T03:12:51.799Z,-1.90
2023-02-02T03:15:19.896Z,-1.90
2023-02-02T03:17:50.637Z,-2.00
2023-02-02T03:20:18.806Z,-2.00
2023-02-02T03:22:46.192Z,-1.90
2023-02-02T03:25:13.728Z,-2.00
2023-02-02T03:27:41.303Z,-1.90
2023-02-02T03:30:11.533Z,-1.90
2023-02-02T03:32:40.429Z,-2.00
2023-02-02T03:35:08.683Z,-2.10
2023-02-02T03:37:36.146Z,-1.90
2023-02-02T03:40:04.160Z,-1.90
2023-02-02T03:42:31.621Z,-1.90
2023-02-02T03:44:59.169Z,-1.80
2023-02-02T03:47:29.934Z,-1.90
2023-02-02T03:49:57.620Z,-2.00
2023-02-02T03:52:25.970Z,-1.90
2023-02-02T03:54:53.831Z,-1.90
2023-02-02T03:57:21.202Z,-1.90
2023-02-02T03:59:48.654Z,-1.90
2023-02-02T04:02:16.159Z,-1.90
2023-02-02T04:04:43.545Z,-2.00
2023-02-02T04:07:11.006Z,-2.10
2023-02-02T04:09:38.416Z,-2.10
2023-02-02T04:12:06.018Z,-2.00
2023-02-02T04:14:33.512Z,-2.00
2023-02-02T04:17:00.958Z,-2.10
2023-02-02T04:19:28.411Z,-2.10
2023-02-02T04:21:55.886Z,-2.00
2023-02-02T04:24:23.283Z,-2.00
2023-02-02T04:26:50.667Z,-2.10
2023-02-02T04:29:18.058Z,-2.10
2023-02-02T04:31:45.929Z,-2.00
2023-02-02T04:34:13.415Z,-2.10
2023-02-02T04:36:40.896Z,-2.10
2023-02-02T04:39:10.713Z,-2.10
2023-02-02T04:41:38.349Z,-2.10
2023-02-02T04:44:07.002Z,-2.20
2023-02-02T04:46:34.374Z,-2.30
2023-02-02T04:49:02.603Z,-2.30
2023-02-02T04:51:30.097Z,-2.20
2023-02-02T04:53:57.493Z,-2.30
2023-02-02T04:56:24.896Z,-2.40
2023-02-02T04:58:55.253Z,-2.30
2023-02-02T05:01:23.136Z,-2.30
2023-02-02T05:03:51.114Z,-2.30
2023-02-02T05:06:19.785Z,-2.20
2023-02-02T05:08:49.125Z,-2.30
2023-02-02T05:11:22.094Z,-2.20
2023-02-02T05:13:52.033Z,-2.20
2023-02-02T05:16:20.376Z,-2.10
2023-02-02T05:18:52.803Z,-2.10
2023-02-02T05:21:21.115Z,-2.20
2023-02-02T05:23:48.908Z,-2.30
2023-02-02T05:26:22.895Z,-2.30
2023-02-02T05:28:50.419Z,-2.30
2023-02-02T05:31:18.348Z,-2.20
2023-02-02T05:33:45.987Z,-2.30
2023-02-02T05:36:13.758Z,-2.30
2023-02-02T05:38:41.123Z,-2.50
2023-02-02T05:41:08.859Z,-2.50
2023-02-02T05:43:36.270Z,-2.50
2023-02-02T05:46:03.793Z,-2.50
2023-02-02T05:48:31.469Z,-2.60
2023-02-02T05:51:20.257Z,-2.60
2023-02-02T05:53:47.860Z,-2.50
2023-02-02T05:56:16.090Z,-2.70
2023-02-02T05:58:44.753Z,-2.70
2023-02-02T06:01:12.197Z,-2.80
2023-02-02T06:03:39.863Z,-2.90
2023-02-02T06:06:10.183Z,-2.90
2023-02-02T06:08:37.529Z,-2.90
2023-02-02T06:11:17.191Z,-3.00
2023-02-02T06:13:46.149Z,-3.00
2023-02-02T06:16:13.859Z,-3.10
2023-02-02T06:18:41.361Z,-3.10
2023-02-02T06:21:08.975Z,-3.10
2023-02-02T06:23:36.335Z,-3.20
2023-02-02T06:26:04.635Z,-3.30
2023-02-02T06:28:32.560Z,-3.30
2023-02-02T06:31:11.518Z,-3.20
2023-02-02T06:33:39.048Z,-3.10
2023-02-02T06:36:07.555Z,-3.20
2023-02-02T06:38:34.901Z,-3.10
2023-02-02T06:41:03.039Z,-3.00
2023-02-02T06:43:31.096Z,-3.10
2023-02-02T06:45:58.912Z,-3.00
2023-02-02T06:48:27.364Z,-3.00
2023-02-02T06:50:54.758Z,-3.00
2023-02-02T06:53:24.984Z,-2.90
2023-02-02T06:56:03.797Z,-3.00
2023-02-02T06:58:32.248Z,-3.00
2023-02-02T07:01:05.288Z,-3.00
2023-02-02T07:03:33.610Z,-3.20
2023-02-02T07:06:15.094Z,-3.10
2023-02-02T07:08:43.040Z,-3.00
2023-02-02T07:11:15.307Z,-2.90
2023-02-02T07:13:45.159Z,-2.90
2023-02-02T07:16:13.647Z,-2.90
2023-02-02T07:18:43.358Z,-2.90
2023-02-02T07:21:20.383Z,-2.90
2023-02-02T07:23:48.597Z,-2.90
2023-02-02T07:26:17.657Z,-3.10
2023-02-02T07:28:46.181Z,-3.10
2023-02-02T07:31:19.570Z,-3.10
2023-02-02T07:33:47.879Z,-3.10
2023-02-02T07:36:17.619Z,-3.10
2023-02-02T07:38:46.924Z,-3.00
2023-02-02T07:41:16.346Z,-3.10
2023-02-02T07:43:47.657Z,-3.20
2023-02-02T07:46:16.460Z,-3.20
2023-02-02T07:48:43.967Z,-3.20
2023-02-02T07:51:18.447Z,-3.20
2023-02-02T07:53:54.368Z,-3.40
2023-02-02T07:56:24.959Z,-3.40
2023-02-02T07:58:53.562Z,-3.50
2023-02-02T08:01:23.298Z,-3.60
2023-02-02T08:03:51.367Z,-3.60
2023-02-02T08:06:40.129Z,-3.70
2023-02-02T08:09:09.879Z,-3.70
2023-02-02T08:11:39.032Z,-3.50
2023-02-02T08:14:07.261Z,-3.40
2023-02-02T08:16:35.299Z,-3.30
2023-02-02T08:19:02.841Z,-3.30
2023-02-02T08:21:32.527Z,-3.10
2023-02-02T08:23:59.999Z,-2.90
2023-02-02T08:26:29.925Z,-2.80
2023-02-02T08:29:00.176Z,-2.80
2023-02-02T08:31:30.909Z,-2.80
2023-02-02T08:33:58.812Z,-2.70
2023-02-02T08:36:28.712Z,-2.60
2023-02-02T08:38:56.349Z,-2.40
2023-02-02T08:41:24.813Z,-2.30
2023-02-02T08:43:52.471Z,-2.30
2023-02-02T08:46:21.917Z,-2.20
2023-02-02T08:48:49.697Z,-2.20
2023-02-02T08:51:19.969Z,-2.10
2023-02-02T08:53:47.550Z,-2.10
2023-02-02T08:56:17.389Z,-2.20
2023-02-02T08:58:48.968Z,-2.10
2023-02-02T09:01:31.066Z,-1.90
2023-02-02T09:04:00.752Z,-2.00
2023-02-02T09:06:41.787Z,-1.90
2023-02-02T09:09:12.891Z,-1.70
2023-02-02T09:11:40.900Z,-1.70
2023-02-02T09:14:09.286Z,-1.60
2023-02-02T09:16:37.190Z,-1.60
2023-02-02T09:19:05.983Z,-1.80
2023-02-02T09:21:37.566Z,-1.80
2023-02-02T09:24:11.357Z,-1.70
2023-02-02T09:26:40.732Z,-1.70
2023-02-02T09:29:14.632Z,-1.60
2023-02-02T09:31:43.322Z,-1.70
2023-02-02T09:34:12.746Z,-1.70
2023-02-02T09:36:40.905Z,-1.80
2023-02-02T09:39:08.953Z,-2.00
2023-02-02T09:41:39.345Z,-2.10
2023-02-02T09:44:33.787Z,-2.10
2023-02-02T09:47:01.361Z,-2.10
2023-02-02T09:49:46.861Z,-2.00
2023-02-02T09:52:21.167Z,-1.90
2023-02-02T09:54:52.464Z,-1.90
2023-02-02T09:57:27.619Z,-1.80
2023-02-02T09:59:55.409Z,-1.70
2023-02-02T10:02:29.203Z,-1.60
2023-02-02T10:05:05.410Z,-1.50
2023-02-02T10:07:39.587Z,-1.50
2023-02-02T10:10:13.359Z,-1.40
2023-02-02T10:12:47.851Z,-1.30
2023-02-02T10:15:35.300Z,-1.20
2023-02-02T10:18:15.626Z,-1.20
2023-02-02T10:20:56.392Z,-1.40
2023-02-02T10:23:47.143Z,-1.60
2023-02-02T10:26:21.177Z,-1.60
2023-02-02T10:29:17.979Z,-1.80
2023-02-02T10:32:04.127Z,-2.20
2023-02-02T10:34:37.301Z,-2.20
2023-02-02T10:37:32.309Z,-2.30
2023-02-02T10:40:05.664Z,-2.20
2023-02-02T10:43:21.227Z,-2.20
2023-02-02T10:45:54.382Z,-2.20
2023-02-02T10:48:30.556Z,-2.10
2023-02-02T10:51:01.741Z,-2.00
2023-02-02T10:53:30.627Z,-1.80
2023-02-02T10:56:11.977Z,-1.80
2023-02-02T10:58:58.859Z,-1.70
2023-02-02T11:01:26.733Z,-1.90
2023-02-02T11:04:14.213Z,-1.80
2023-02-02T11:06:51.112Z,-1.80
2023-02-02T11:09:28.859Z,-1.80
2023-02-02T11:12:21.146Z,-2.00
2023-02-02T11:15:05.472Z,-2.00
2023-02-02T11:17:34.027Z,-2.10
2023-02-02T11:20:01.961Z,-2.10
2023-02-02T11:22:35.951Z,-2.00
2023-02-02T11:25:08.114Z,-2.10
2023-02-02T11:27:43.728Z,-2.00
2023-02-02T11:30:34.676Z,-2.00
2023-02-02T11:33:36.068Z,-1.90
2023-02-02T11:36:19.833Z,-1.90
2023-02-02T11:38:47.520Z,-1.70
2023-02-02T11:41:17.538Z,-1.70
2023-02-02T11:43:54.649Z,-1.80
2023-02-02T11:46:29.895Z,-1.80
2023-02-02T11:49:04.689Z,-1.90
2023-02-02T11:51:32.945Z,-1.80
2023-02-02T11:54:06.543Z,-1.80
2023-02-02T11:56:36.673Z,-1.90
2023-02-02T11:59:04.438Z,-1.80
2023-02-02T12:01:40.103Z,-1.80
2023-02-02T12:04:27.943Z,-1.80
2023-02-02T12:06:55.554Z,-1.80
2023-02-02T12:09:25.303Z,-1.70
2023-02-02T12:12:23.596Z,-1.90
2023-02-02T12:15:28.509Z,-1.80
2023-02-02T12:18:31.777Z,-1.70
2023-02-02T12:20:59.323Z,-1.70
2023-02-02T12:23:41.160Z,-1.60
2023-02-02T12:26:22.100Z,-1.60
2023-02-02T12:29:14.894Z,-1.70
2023-02-02T12:32:14.278Z,-1.70
2023-02-02T12:35:00.308Z,-1.60
2023-02-02T12:37:42.410Z,-1.90
2023-02-02T12:40:23.343Z,-2.00
2023-02-02T12:42:51.062Z,-2.00
2023-02-02T12:45:46.130Z,-2.00
2023-02-02T12:48:22.557Z,-2.00
2023-02-02T12:51:22.057Z,-2.10
2023-02-02T12:54:34.701Z,-2.10
2023-02-02T12:57:45.225Z,-2.20
2023-02-02T13:00:39.827Z,-2.30
2023-02-02T13:03:27.169Z,-2.10
2023-02-02T13:05:55.449Z,-2.10
2023-02-02T13:08:52.263Z,-2.10
2023-02-02T13:11:37.319Z,-2.10
2023-02-02T13:14:34.790Z,-2.10
2023-02-02T13:17:10.212Z,-2.00
2023-02-02T13:19:53.815Z,-2.00
2023-02-02T13:22:37.961Z,-1.90
2023-02-02T13:25:10.683Z,-2.00
2023-02-02T13:27:40.145Z,-1.90
2023-02-02T13:30:25.660Z,-1.80
2023-02-02T13:32:57.364Z,-2.10
2023-02-02T13:35:52.016Z,-2.00
2023-02-02T13:38:30.867Z,-2.00
2023-02-02T13:41:04.210Z,-2.00
2023-02-02T13:43:53.794Z,-2.20
2023-02-02T13:46:34.345Z,-2.00
2023-02-02T13:49:13.644Z,-2.00
2023-02-02T13:51:51.267Z,-2.10
2023-02-02T13:54:55.694Z,-2.10
2023-02-02T13:57:53.294Z,-2.10
2023-02-02T14:00:35.248Z,-2.00
2023-02-02T14:03:20.860Z,-2.10
2023-02-02T14:06:13.653Z,-2.00
2023-02-02T14:08:52.145Z,-2.00
2023-02-02T14:11:46.974Z,-1.90
2023-02-02T14:14:33.213Z,-2.10
2023-02-02T14:17:19.551Z,-2.20
2023-02-02T14:19:57.033Z,-2.30
2023-02-02T14:22:54.972Z,-2.50
2023-02-02T14:25:40.580Z,-2.60
2023-02-02T14:28:14.487Z,-2.70
2023-02-02T14:30:42.075Z,-2.80
2023-02-02T14:33:40.160Z,-2.80
2023-02-02T14:36:14.473Z,-3.10
2023-02-02T14:39:03.295Z,-3.10
2023-02-02T14:41:55.645Z,-3.20
2023-02-02T14:44:24.373Z,-3.30
2023-02-02T14:46:51.924Z,-3.20
2023-02-02T14:49:26.263Z,-3.30
2023-02-02T14:52:01.746Z,-3.40
2023-02-02T14:54:32.131Z,-3.40
2023-02-02T14:57:06.945Z,-3.50
2023-02-02T14:59:38.950Z,-3.70
2023-02-02T15:02:38.159Z,-3.90
2023-02-02T15:05:39.155Z,-4.00
2023-02-02T15:08:22.099Z,-4.10
2023-02-02T15:10:55.457Z,-4.20
2023-02-02T15:13:27.295Z,-4.40
2023-02-02T15:16:07.767Z,-4.50
2023-02-02T15:18:44.528Z,-4.50
2023-02-02T15:21:17.374Z,-4.50
2023-02-02T15:23:47.062Z,-4.60
2023-02-02T15:26:27.868Z,-4.70
2023-02-02T15:28:59.997Z,-4.80
2023-02-02T15:31:44.469Z,-4.90
2023-02-02T15:34:23.040Z,-5.00
2023-02-02T15:36:54.451Z,-5.00
2023-02-02T15:39:31.149Z,-5.20
2023-02-02T15:42:21.065Z,-5.40
2023-02-02T15:44:48.557Z,-5.50
2023-02-02T15:47:24.219Z,-5.60
2023-02-02T15:49:52.881Z,-5.60
2023-02-02T15:52:25.991Z,-5.60
2023-02-02T15:54:56.273Z,-5.70
2023-02-02T15:57:31.243Z,-5.80
2023-02-02T15:59:59.877Z,-5.80
2023-02-02T16:02:31.700Z,-5.80
2023-02-02T16:04:59.477Z,-5.80
2023-02-02T16:07:37.025Z,-6.00
2023-02-02T16:10:08.451Z,-6.00
2023-02-02T16:12:35.993Z,-6.10
2023-02-02T16:15:03.859Z,-6.10
2023-02-02T16:17:33.637Z,-6.20
2023-02-02T16:20:09.496Z,-6.30
2023-02-02T16:22:38.453Z,-6.30
2023-02-02T16:25:19.720Z,-6.30
2023-02-02T16:27:48.989Z,-6.40
2023-02-02T16:30:29.501Z,-6.50
2023-02-02T16:32:57.222Z,-6.50
2023-02-02T16:35:37.222Z,-6.50
2023-02-02T16:38:15.465Z,-6.70
2023-02-02T16:40:43.246Z,-6.80
2023-02-02T16:43:27.392Z,-6.80
2023-02-02T16:45:57.250Z,-6.90
2023-02-02T16:48:56.375Z,-7.00
2023-02-02T16:51:31.102Z,-7.10
2023-02-02T16:54:06.336Z,-7.00
2023-02-02T16:56:37.587Z,-7.00
2023-02-02T16:59:23.099Z,-7.00
2023-02-02T17:02:02.800Z,-7.10
2023-02-02T17:04:33.064Z,-7.20
2023-02-02T17:07:16.289Z,-7.30
2023-02-02T17:09:46.230Z,-7.30
2023-02-02T17:12:32.660Z,-7.30
2023-02-02T17:15:06.063Z,-7.30
2023-02-02T17:17:34.061Z,-7.30
2023-02-02T17:20:01.626Z,-7.40
2023-02-02T17:22:30.574Z,-7.40
2023-02-02T17:24:59.189Z,-7.50
2023-02-02T17:27:34.129Z,-7.50
2023-02-02T17:30:04.331Z,-7.60
2023-02-02T17:32:31.806Z,-7.70
2023-02-02T17:35:01.955Z,-7.70
2023-02-02T17:37:30.938Z,-7.70
2023-02-02T17:39:58.669Z,-7.80
2023-02-02T17:42:28.748Z,-7.80
2023-02-02T17:44:56.515Z,-7.80
2023-02-02T17:47:24.214Z,-7.80
2023-02-02T17:49:52.278Z,-7.90
2023-02-02T17:52:21.302Z,-7.90
2023-02-02T17:54:52.487Z,-7.90
2023-02-02T17:57:21.976Z,-7.90
2023-02-02T17:59:49.783Z,-7.90
2023-02-02T18:02:17.522Z,-8.00
2023-02-02T18:04:45.777Z,-8.00
2023-02-02T18:07:13.844Z,-8.00
2023-02-02T18:09:41.816Z,-8.10
2023-02-02T18:12:10.032Z,-8.20
2023-02-02T18:14:40.962Z,-8.10
2023-02-02T18:17:09.186Z,-8.10
2023-02-02T18:19:36.953Z,-8.20
2023-02-02T18:22:04.587Z,-8.20
2023-02-02T18:24:32.067Z,-8.20
2023-02-02T18:26:59.841Z,-8.30
2023-02-02T18:29:27.343Z,-8.30
2023-02-02T18:31:55.019Z,-8.40
2023-02-02T18:34:22.723Z,-8.30
2023-02-02T18:36:50.412Z,-8.40
2023-02-02T18:39:17.981Z,-8.40
2023-02-02T18:41:45.459Z,-8.30
2023-02-02T18:44:12.975Z,-8.30
2023-02-02T18:46:40.504Z,-8.40
2023-02-02T18:49:08.049Z,-8.40
2023-02-02T18:51:35.932Z,-8.50
2023-02-02T18:54:03.858Z,-8.50
2023-02-02T18:56:31.496Z,-8.50
2023-02-02T18:58:59.728Z,-8.70
2023-02-02T19:01:27.566Z,-8.80
2023-02-02T19:03:59.142Z,-8.80
2023-02-02T19:06:46.879Z,-8.80
2023-02-02T19:09:17.411Z,-8.80
2023-02-02T19:11:48.109Z,-8.70
2023-02-02T19:14:17.252Z,-8.70
2023-02-02T19:16:46.633Z,-8.70
2023-02-02T19:19:26.607Z,-8.70
2023-02-02T19:21:56.712Z,-8.80
2023-02-02T19:24:33.447Z,-8.80
2023-02-02T19:27:01.057Z,-8.80
2023-02-02T19:29:36.409Z,-8.90
2023-02-02T19:32:14.512Z,-8.90
2023-02-02T19:34:42.372Z,-8.90
2023-02-02T19:37:27.502Z,-8.90
2023-02-02T19:40:08.601Z,-8.80
2023-02-02T19:42:39.457Z,-8.80
2023-02-02T19:45:31.361Z,-8.80
2023-02-02T19:48:07.051Z,-8.90
2023-02-02T19:50:41.556Z,-9.00
2023-02-02T19:53:28.603Z,-9.00
2023-02-02T19:55:56.459Z,-9.00
2023-02-02T19:58:28.997Z,-8.90
2023-02-02T20:00:58.247Z,-8.90
2023-02-02T20:03:43.141Z,-9.00
2023-02-02T20:06:31.022Z,-9.20
2023-02-02T20:09:01.352Z,-9.20
2023-02-02T20:11:43.091Z,-9.10
2023-02-02T20:14:19.718Z,-9.20
2023-02-02T20:16:54.337Z,-9.20
2023-02-02T20:19:29.455Z,-9.20
2023-02-02T20:21:57.882Z,-9.20
2023-02-02T20:24:31.747Z,-9.20
2023-02-02T20:27:05.557Z,-9.20
2023-02-02T20:29:42.062Z,-9.20
2023-02-02T20:32:26.904Z,-9.40
2023-02-02T20:34:57.112Z,-9.50
2023-02-02T20:37:36.537Z,-9.40
2023-02-02T20:40:21.772Z,-9.50
2023-02-02T20:42:51.046Z,-9.50
2023-02-02T20:45:19.653Z,-9.50
2023-02-02T20:47:47.282Z,-9.40
2023-02-02T20:50:17.777Z,-9.50
2023-02-02T20:52:45.666Z,-9.40
2023-02-02T20:55:13.550Z,-9.50
2023-02-02T20:57:41.292Z,-9.50
2023-02-02T21:00:13.534Z,-9.50
2023-02-02T21:02:41.257Z,-9.40
2023-02-02T21:05:09.031Z,-9.40
2023-02-02T21:07:36.715Z,-9.50
2023-02-02T21:10:05.304Z,-9.40
2023-02-02T21:12:32.705Z,-9.50
2023-02-02T21:15:00.292Z,-9.40
2023-02-02T21:17:28.014Z,-9.30
2023-02-02T21:19:55.891Z,-9.50
2023-02-02T21:22:23.747Z,-9.60
2023-02-02T21:24:51.523Z,-9.60
2023-02-02T21:27:19.084Z,-9.70
2023-02-02T21:29:46.670Z,-9.70
2023-02-02T21:32:14.176Z,-9.70
2023-02-02T21:34:41.858Z,-9.60
2023-02-02T21:37:16.349Z,-9.60
2023-02-02T21:39:49.808Z,-9.60
2023-02-02T21:42:22.785Z,-9.70
2023-02-02T21:44:57.228Z,-9.70
2023-02-02T21:47:48.069Z,-9.80
2023-02-02T21:50:23.915Z,-9.90
2023-02-02T21:52:51.626Z,-9.90
2023-02-02T21:55:21.994Z,-9.80
2023-02-02T21:57:49.619Z,-9.80
2023-02-02T22:00:33.813Z,-9.80
2023-02-02T22:03:01.563Z,-9.80
2023-02-02T22:05:36.356Z,-9.90
2023-02-02T22:08:23.179Z,-9.90
2023-02-02T22:10:50.800Z,-10.00
2023-02-02T22:13:20.914Z,-10.00
2023-02-02T22:15:51.228Z,-10.00
2023-02-02T22:18:24.362Z,-10.20
2023-02-02T22:20:56.724Z,-10.20
2023-02-02T22:23:30.486Z,-10.20
2023-02-02T22:25:59.344Z,-10.20
2023-02-02T22:28:40.686Z,-10.20
2023-02-02T22:31:10.974Z,-10.30
2023-02-02T22:33:39.185Z,-10.40
2023-02-02T22:36:07.451Z,-10.30
2023-02-02T22:38:34.983Z,-10.30
2023-02-02T22:41:02.552Z,-10.30
2023-02-02T22:43:30.651Z,-10.30
2023-02-02T22:45:58.313Z,-10.20
2023-02-02T22:48:25.930Z,-10.30
2023-02-02T22:50:53.651Z,-10.30
2023-02-02T22:53:21.188Z,-10.30
2023-02-02T22:55:49.279Z,-10.30
2023-02-02T22:58:17.004Z,-10.40
2023-02-02T23:00:44.567Z,-10.40
2023-02-02T23:03:12.084Z,-10.40
2023-02-02T23:05:39.588Z,-10.40
2023-02-02T23:08:07.199Z,-10.40
2023-02-02T23:10:36.044Z,-10.40
2023-02-02T23:13:04.678Z,-10.40
2023-02-02T23:15:32.749Z,-10.40
2023-02-02T23:18:00.457Z,-10.50
2023-02-02T23:20:28.498Z,-10.50
2023-02-02T23:22:56.427Z,-10.70
2023-02-02T23:25:23.885Z,-10.70
2023-02-02T23:27:51.536Z,-10.60
2023-02-02T23:30:21.412Z,-10.60
2023-02-02T23:32:49.189Z,-10.50
2023-02-02T23:35:17.140Z,-10.50
2023-02-02T23:37:44.609Z,-10.50
2023-02-02T23:40:12.892Z,-10.50
2023-02-02T23:42:40.445Z,-10.50
2023-02-02T23:45:08.273Z,-10.50
2023-02-02T23:47:36.157Z,-10.50
2023-02-02T23:50:06.204Z,-10.60
2023-02-02T23:52:34.799Z,-10.60
2023-02-02T23:55:03.141Z,-10.50
2023-02-02T23:57:30.875Z,-10.50
2023-02-02T23:59:58.500Z,-10.40
